Time;durP1;ratioP1;P1;durP2;ratioP2;P2;SDS_P1;SDS_P2;PMS_P1;PMS_P2;Temp;Humidity;BMP_temperature;BMP_pressure;BME280_temperature;BME280_humidity;BME280_pressure;Samples;Min_cycle;Max_cycle;Signal;HPM_P1;HPM_P2
2022/03/24 00:01:01;;;;;;;30.77;17.75;;;;;;;4.67;54.81;97650.16;2079086;28;20220;-60
2022/03/24 00:02:03;;;;;;;36.72;16.83;;;;;;;4.72;54.85;97653.44;2078882;28;20190;-59
2022/03/24 00:03:08;;;;;;;31.55;18.52;;;;;;;4.68;54.96;97644.88;2079349;28;20330;-59
2022/03/24 00:04:12;;;;;;;34.47;16.95;;;;;;;4.63;55.32;97640.75;2076581;28;20197;-59
2022/03/24 00:05:14;;;;;;;36.58;18.50;;;;;;;4.50;55.48;97646.25;2078415;28;20578;-59
2022/03/24 00:06:15;;;;;;;35.65;19.60;;;;;;;4.41;55.88;97637.88;2079648;28;20229;-59
2022/03/24 00:07:17;;;;;;;28.55;16.73;;;;;;;4.45;55.77;97642.97;2079550;28;20215;-59
2022/03/24 00:08:18;;;;;;;31.65;16.55;;;;;;;4.58;55.41;97642.63;2079231;28;20207;-60
2022/03/24 00:09:20;;;;;;;36.67;18.40;;;;;;;4.43;55.56;97636.09;2076754;28;20205;-60
2022/03/24 00:10:21;;;;;;;34.75;17.52;;;;;;;4.47;55.67;97637.72;2075537;28;20198;-60
2022/03/24 00:11:22;;;;;;;32.97;17.85;;;;;;;4.44;55.76;97643.84;2078074;28;20206;-60
2022/03/24 00:12:24;;;;;;;36.88;18.02;;;;;;;4.39;55.89;97643.13;2079107;28;20209;-59
2022/03/24 00:13:25;;;;;;;34.53;16.45;;;;;;;4.40;55.78;97638.78;2078007;28;20530;-59
2022/03/24 00:14:27;;;;;;;30.08;17.38;;;;;;;4.44;56.10;97640.41;2078824;28;20200;-59
2022/03/24 00:15:29;;;;;;;37.08;18.08;;;;;;;4.39;56.08;97639.66;2077996;28;20244;-59
2022/03/24 00:16:30;;;;;;;29.33;16.35;;;;;;;4.34;56.28;97637.22;2075317;28;20201;-59
2022/03/24 00:17:33;;;;;;;30.77;17.25;;;;;;;4.29;56.60;97641.66;2077828;28;20201;-59
2022/03/24 00:18:34;;;;;;;31.40;16.90;;;;;;;4.38;56.37;97641.41;2077931;28;20193;-59
2022/03/24 00:19:36;;;;;;;32.70;16.73;;;;;;;4.31;56.51;97642.47;2076819;28;20197;-59
2022/03/24 00:20:37;;;;;;;35.38;17.45;;;;;;;4.24;56.87;97643.53;2079331;28;20217;-59
2022/03/24 00:21:39;;;;;;;35.28;17.00;;;;;;;4.23;56.82;97639.25;2079830;28;20267;-60
2022/03/24 00:22:41;;;;;;;28.00;16.17;;;;;;;4.05;57.30;97638.00;2077345;28;20197;-59
2022/03/24 00:23:43;;;;;;;31.52;17.45;;;;;;;4.02;57.49;97638.06;2072588;28;20204;-59
2022/03/24 00:24:44;;;;;;;28.25;17.08;;;;;;;3.88;58.19;97638.41;2073481;28;20201;-59
2022/03/24 00:25:45;;;;;;;30.10;17.35;;;;;;;3.97;57.86;97644.22;2075947;28;20221;-59
2022/03/24 00:26:47;;;;;;;32.83;17.33;;;;;;;3.99;57.89;97644.19;2079049;28;20197;-58
2022/03/24 00:27:49;;;;;;;33.13;17.25;;;;;;;4.09;57.55;97637.84;2078759;28;20596;-59
2022/03/24 00:28:50;;;;;;;33.60;17.73;;;;;;;4.09;57.35;97634.41;2078625;28;20201;-59
2022/03/24 00:29:51;;;;;;;31.02;17.70;;;;;;;4.03;57.50;97634.59;2079050;28;20194;-59
2022/03/24 00:30:53;;;;;;;27.15;17.10;;;;;;;4.02;57.44;97631.16;2078665;28;20244;-59
2022/03/24 00:31:54;;;;;;;27.45;16.80;;;;;;;4.06;57.31;97634.53;2079262;28;20202;-59
2022/03/24 00:32:56;;;;;;;37.90;16.90;;;;;;;4.08;56.91;97632.75;2079349;28;20201;-59
2022/03/24 00:33:57;;;;;;;32.88;17.80;;;;;;;4.11;57.13;97636.06;2077464;28;20264;-59
2022/03/24 00:34:59;;;;;;;32.22;17.55;;;;;;;4.22;56.60;97634.97;2077415;28;20200;-59
2022/03/24 00:36:01;;;;;;;29.90;16.50;;;;;;;4.15;56.41;97629.91;2079380;28;20259;-59
2022/03/24 00:37:04;;;;;;;29.60;17.17;;;;;;;4.18;56.69;97631.59;2080397;28;20208;-59
2022/03/24 00:38:05;;;;;;;36.53;16.95;;;;;;;4.09;56.83;97622.31;2078915;28;20201;-59
2022/03/24 00:39:07;;;;;;;32.55;16.92;;;;;;;4.06;56.64;97625.00;2081306;28;20634;-59
2022/03/24 00:40:09;;;;;;;33.33;16.73;;;;;;;4.03;56.86;97624.22;2076039;28;20197;-60
2022/03/24 00:41:11;;;;;;;33.67;15.75;;;;;;;4.02;56.54;97635.47;2076956;28;20229;-59
2022/03/24 00:42:12;;;;;;;30.40;17.45;;;;;;;3.97;57.10;97626.06;2078941;28;20251;-59
2022/03/24 00:43:14;;;;;;;35.33;17.17;;;;;;;4.01;56.79;97629.44;2077731;28;20197;-59
2022/03/24 00:44:15;;;;;;;43.42;18.38;;;;;;;3.98;57.00;97624.34;2080117;28;20214;-59
2022/03/24 00:45:18;;;;;;;47.78;18.45;;;;;;;3.97;57.00;97625.22;2077972;28;20560;-59
2022/03/24 00:46:22;;;;;;;30.40;16.67;;;;;;;4.05;56.75;97623.28;2078088;28;20208;-59
2022/03/24 00:47:24;;;;;;;34.38;16.00;;;;;;;4.01;56.93;97613.03;2075953;28;20193;-59
2022/03/24 00:48:26;;;;;;;45.10;17.85;;;;;;;3.89;56.95;97611.63;2079478;28;20201;-59
2022/03/24 00:49:27;;;;;;;32.60;17.30;;;;;;;3.86;57.30;97609.97;2079748;28;20194;-59
2022/03/24 00:50:28;;;;;;;31.65;16.02;;;;;;;3.81;57.66;97608.38;2077962;28;20198;-59
2022/03/24 00:51:30;;;;;;;31.73;15.88;;;;;;;3.76;57.96;97611.94;2078846;28;20205;-59
2022/03/24 00:52:31;;;;;;;31.85;15.30;;;;;;;3.79;57.69;97608.41;2078960;28;20214;-59
2022/03/24 00:53:33;;;;;;;38.17;16.05;;;;;;;3.78;57.35;97592.91;2077471;28;20197;-59
2022/03/24 00:54:34;;;;;;;32.42;16.73;;;;;;;3.88;57.46;97609.91;2076339;28;20205;-59
2022/03/24 00:55:36;;;;;;;31.27;17.38;;;;;;;3.83;57.57;97607.44;2075017;28;20230;-59
2022/03/24 00:56:37;;;;;;;31.80;16.13;;;;;;;3.79;57.69;97607.56;2075451;28;20212;-60
2022/03/24 00:57:40;;;;;;;39.33;17.58;;;;;;;3.83;57.69;97606.59;2078981;28;20193;-59
2022/03/24 00:58:42;;;;;;;28.10;16.55;;;;;;;3.79;57.91;97604.97;2072433;28;20248;-59
2022/03/24 00:59:43;;;;;;;35.15;18.27;;;;;;;3.73;57.90;97605.97;2078840;28;20684;-60
2022/03/24 01:00:44;;;;;;;30.42;16.52;;;;;;;3.79;57.97;97610.16;2077655;28;20676;-59
2022/03/24 01:01:46;;;;;;;31.08;16.05;;;;;;;3.72;58.06;97612.91;2076798;28;20194;-59
2022/03/24 01:02:49;;;;;;;39.15;18.48;;;;;;;3.84;58.09;97613.47;2078676;28;20198;-59
2022/03/24 01:03:51;;;;;;;36.38;18.45;;;;;;;3.79;58.08;97607.56;2078068;28;20205;-59
2022/03/24 01:04:52;;;;;;;34.38;16.40;;;;;;;3.74;58.32;97607.66;2076725;28;20204;-59
2022/03/24 01:05:54;;;;;;;35.58;17.23;;;;;;;3.74;58.35;97598.19;2074231;28;20255;-59
2022/03/24 01:06:55;;;;;;;32.97;17.17;;;;;;;3.87;58.28;97603.88;2077046;28;20626;-59
2022/03/24 01:07:57;;;;;;;34.30;16.13;;;;;;;3.69;58.73;97610.38;2077403;28;20196;-59
2022/03/24 01:08:58;;;;;;;33.13;17.58;;;;;;;3.61;59.24;97612.31;2078092;28;20758;-59
2022/03/24 01:10:00;;;;;;;24.42;15.82;;;;;;;3.64;58.82;97604.47;2078253;28;20204;-59
2022/03/24 01:11:05;;;;;;;35.83;16.85;;;;;;;3.56;58.85;97611.56;2076814;28;20249;-59
2022/03/24 01:12:07;;;;;;;37.88;18.15;;;;;;;3.31;59.84;97607.00;2075600;28;20198;-59
2022/03/24 01:13:09;;;;;;;31.05;18.25;;;;;;;3.21;59.93;97612.41;2078113;28;20830;-59
2022/03/24 01:14:11;;;;;;;27.98;15.48;;;;;;;3.24;59.87;97609.78;2076715;28;20193;-59
2022/03/24 01:15:17;;;;;;;32.88;17.25;;;;;;;3.35;59.62;97606.03;2082630;28;20722;-59
2022/03/24 01:16:19;;;;;;;32.30;16.75;;;;;;;3.32;59.62;97613.88;2084593;28;20699;-59
2022/03/24 01:17:23;;;;;;;37.58;17.63;;;;;;;3.29;59.55;97601.00;2079244;28;20673;-60
2022/03/24 01:18:24;;;;;;;32.42;15.70;;;;;;;3.28;60.03;97617.41;2077427;28;20227;-59
2022/03/24 01:19:26;;;;;;;36.33;17.38;;;;;;;3.32;59.90;97607.84;2079303;28;20508;-60
2022/03/24 01:20:28;;;;;;;36.15;17.45;;;;;;;3.38;59.62;97604.25;2078646;28;20628;-59
2022/03/24 01:21:29;;;;;;;35.42;17.52;;;;;;;3.42;59.62;97611.91;2076740;28;20194;-59
2022/03/24 01:22:31;;;;;;;39.85;17.67;;;;;;;3.42;59.74;97611.91;2078781;28;20216;-60
2022/03/24 01:23:34;;;;;;;29.35;17.38;;;;;;;3.37;59.88;97608.56;2076353;28;20201;-60
2022/03/24 01:24:38;;;;;;;41.28;18.25;;;;;;;3.31;60.02;97608.72;2078776;28;20262;-59
2022/03/24 01:25:43;;;;;;;32.10;17.13;;;;;;;3.25;60.13;97609.72;2078526;28;20221;-60
2022/03/24 01:26:45;;;;;;;27.52;15.95;;;;;;;3.21;60.03;97610.69;2078721;28;20208;-60
2022/03/24 01:27:47;;;;;;;29.30;16.30;;;;;;;3.05;60.12;97606.75;2077652;28;20532;-59
2022/03/24 01:28:50;;;;;;;31.17;17.90;;;;;;;3.00;60.94;97606.00;2073868;28;20194;-60
2022/03/24 01:29:54;;;;;;;31.23;16.98;;;;;;;2.94;61.06;97606.97;2077380;28;20193;-59
2022/03/24 01:30:55;;;;;;;30.88;17.23;;;;;;;2.94;60.98;97602.69;2074696;28;20614;-59
2022/03/24 01:31:57;;;;;;;34.30;17.33;;;;;;;3.25;59.88;97604.53;2077895;28;20194;-59
2022/03/24 01:33:00;;;;;;;32.95;18.65;;;;;;;3.28;59.67;97599.31;2076638;28;20205;-59
2022/03/24 01:34:01;;;;;;;29.55;16.92;;;;;;;3.00;59.95;97567.16;2075790;28;20592;-60
2022/03/24 01:35:06;;;;;;;30.17;16.85;;;;;;;3.22;59.88;97599.44;2074528;28;20544;-59
2022/03/24 01:36:09;;;;;;;35.00;15.88;;;;;;;3.14;60.02;97601.38;2077428;28;20229;-59
2022/03/24 01:37:11;;;;;;;30.08;16.90;;;;;;;3.06;60.40;97593.78;2077455;28;20304;-59
2022/03/24 01:38:15;;;;;;;35.30;17.88;;;;;;;3.14;60.17;97603.97;2077717;28;20209;-59
2022/03/24 01:39:16;;;;;;;29.73;16.75;;;;;;;3.14;60.26;97603.97;2080423;28;20205;-59
2022/03/24 01:40:18;;;;;;;26.25;16.20;;;;;;;3.16;60.66;97602.19;2075265;28;20237;-59
2022/03/24 01:41:21;;;;;;;34.05;17.50;;;;;;;3.15;60.64;97605.66;2076841;28;20194;-59
2022/03/24 01:42:22;;;;;;;29.17;16.40;;;;;;;3.12;60.83;97600.56;2073820;28;20200;-59
2022/03/24 01:43:24;;;;;;;31.98;17.90;;;;;;;3.10;60.80;97595.41;2074628;28;20205;-59
2022/03/24 01:44:27;;;;;;;32.28;16.40;;;;;;;3.08;60.61;97593.75;2076865;28;20232;-59
2022/03/24 01:45:30;;;;;;;29.27;16.38;;;;;;;3.13;60.45;97594.47;2075970;28;20197;-59
2022/03/24 01:46:32;;;;;;;31.73;16.85;;;;;;;3.08;60.50;97597.19;2076413;28;20236;-59
2022/03/24 01:47:35;;;;;;;28.50;17.25;;;;;;;3.08;60.54;97597.19;2075705;28;20225;-59
2022/03/24 01:48:36;;;;;;;28.05;16.30;;;;;;;3.03;60.67;97593.84;2077885;28;20202;-60
2022/03/24 01:49:43;;;;;;;40.55;16.20;;;;;;;3.08;60.43;97593.75;2077077;28;20653;-59
2022/03/24 01:50:45;;;;;;;32.72;16.65;;;;;;;3.04;60.58;97590.38;2077069;28;20213;-59
2022/03/24 01:51:46;;;;;;;30.05;16.02;;;;;;;2.99;60.44;97593.94;2077907;28;20193;-59
2022/03/24 01:52:47;;;;;;;31.05;17.27;;;;;;;2.87;61.11;97600.25;2076786;28;20208;-59
2022/03/24 01:53:49;;;;;;;37.45;16.40;;;;;;;2.86;61.00;97594.22;2075523;28;20208;-59
2022/03/24 01:54:56;;;;;;;23.95;15.38;;;;;;;2.84;61.29;97595.97;2076948;28;20220;-59
2022/03/24 01:55:58;;;;;;;26.52;14.95;;;;;;;2.84;61.02;97593.38;2074632;28;20221;-59
2022/03/24 01:56:59;;;;;;;32.15;16.98;;;;;;;2.78;61.42;97588.34;2076150;28;20202;-59
2022/03/24 01:58:02;;;;;;;26.98;15.23;;;;;;;2.86;61.24;97589.06;2077385;28;20615;-60
2022/03/24 01:59:05;;;;;;;29.40;15.55;;;;;;;2.86;60.90;97594.22;2077802;28;20197;-60
2022/03/24 02:00:09;;;;;;;30.80;17.05;;;;;;;2.84;60.87;97595.13;2078603;28;20209;-60
2022/03/24 02:01:46;;;;;;;30.42;16.88;;;;;;;2.75;61.47;97593.63;2078308;28;20225;-59
2022/03/24 02:02:50;;;;;;;30.75;16.15;;;;;;;2.72;61.39;97583.31;2055080;28;20199;-59
2022/03/24 02:03:53;;;;;;;29.42;15.35;;;;;;;2.74;61.59;97595.34;2055119;28;20396;-59
2022/03/24 02:04:55;;;;;;;32.13;16.90;;;;;;;2.63;61.63;97592.16;2055542;28;20195;-59
2022/03/24 02:05:56;;;;;;;29.48;15.90;;;;;;;2.53;61.99;97580.28;2054967;28;20227;-59
2022/03/24 02:06:58;;;;;;;30.80;16.83;;;;;;;2.53;62.07;97588.91;2055472;28;20207;-60
2022/03/24 02:08:03;;;;;;;32.75;16.38;;;;;;;2.46;62.29;97587.31;2055679;28;20199;-59
2022/03/24 02:09:04;;;;;;;34.33;14.85;;;;;;;2.61;62.17;97596.50;2054837;28;20199;-60
2022/03/24 02:10:08;;;;;;;32.35;15.80;;;;;;;2.70;62.06;97590.25;2047492;29;20203;-59
2022/03/24 02:11:11;;;;;;;26.10;15.65;;;;;;;2.72;62.05;97591.91;2047623;28;20227;-59
2022/03/24 02:12:13;;;;;;;35.63;16.92;;;;;;;2.73;62.05;97583.28;2055496;28;20661;-59
2022/03/24 02:13:15;;;;;;;38.92;16.08;;;;;;;2.79;61.70;97581.47;2055389;28;20749;-59
2022/03/24 02:14:16;;;;;;;32.63;15.38;;;;;;;2.75;61.84;97583.25;2055440;28;20203;-60
2022/03/24 02:15:18;;;;;;;38.00;16.70;;;;;;;2.79;61.60;97591.81;2054778;28;20257;-60
2022/03/24 02:16:20;;;;;;;33.85;16.95;;;;;;;2.74;61.45;97587.59;2055394;28;20199;-59
2022/03/24 02:17:28;;;;;;;44.97;17.30;;;;;;;2.71;61.69;97584.22;2054624;28;20316;-59
2022/03/24 02:18:31;;;;;;;26.73;16.15;;;;;;;2.68;61.80;97577.34;2055554;28;20769;-59
2022/03/24 02:19:36;;;;;;;28.05;14.85;;;;;;;2.68;61.94;97576.50;2055395;28;20199;-60
2022/03/24 02:20:39;;;;;;;28.42;16.30;;;;;;;2.71;62.02;97582.47;2055051;28;20757;-58
2022/03/24 02:21:42;;;;;;;30.23;16.08;;;;;;;2.73;61.97;97580.72;2055092;28;20226;-59
2022/03/24 02:22:44;;;;;;;28.58;16.17;;;;;;;2.62;62.27;97576.66;2055571;28;20206;-59
2022/03/24 02:23:46;;;;;;;31.55;16.15;;;;;;;2.74;61.93;97581.53;2054630;28;20663;-59
2022/03/24 02:24:47;;;;;;;30.48;15.65;;;;;;;2.70;62.47;97579.91;2055291;28;20327;-60
2022/03/24 02:25:49;;;;;;;37.80;17.73;;;;;;;2.79;61.82;97579.72;2054802;28;20226;-59
2022/03/24 02:26:52;;;;;;;29.58;14.77;;;;;;;2.80;61.92;97578.81;2055362;28;20679;-59
2022/03/24 02:27:55;;;;;;;32.58;16.05;;;;;;;2.66;62.05;97575.69;2054420;28;20653;-59
2022/03/24 02:28:57;;;;;;;33.72;16.55;;;;;;;2.67;62.23;97575.66;2054867;28;20207;-60
2022/03/24 02:29:58;;;;;;;32.08;16.55;;;;;;;2.70;61.92;97577.31;2055448;28;20215;-60
2022/03/24 02:31:00;;;;;;;31.58;16.17;;;;;;;2.67;62.23;97578.25;2054890;28;20223;-59
2022/03/24 02:32:02;;;;;;;39.03;16.35;;;;;;;2.60;62.12;97574.09;2054776;28;20211;-59
2022/03/24 02:33:04;;;;;;;33.17;18.00;;;;;;;2.62;62.32;97580.06;2055292;28;20199;-59
2022/03/24 02:35:27;;;;;;;31.48;15.57;;;;;;;2.52;62.65;97578.59;2054942;28;20203;-60
2022/03/24 02:36:37;;;;;;;33.00;16.33;;;;;;;2.51;62.77;97574.28;2055322;28;20195;-59
2022/03/24 02:37:40;;;;;;;28.35;15.75;;;;;;;2.54;63.10;97580.25;2062266;28;20202;-59
2022/03/24 02:38:41;;;;;;;30.60;16.42;;;;;;;2.50;62.95;97570.84;2073311;28;20190;-59
2022/03/24 02:39:45;;;;;;;31.08;16.17;;;;;;;2.41;63.25;97575.34;2075523;28;20193;-59
2022/03/24 02:40:49;;;;;;;40.97;16.67;;;;;;;2.38;63.12;97573.69;2076128;28;20228;-59
2022/03/24 02:41:53;;;;;;;34.63;17.23;;;;;;;2.43;63.23;97577.06;2074470;28;20208;-59
2022/03/24 02:42:54;;;;;;;27.20;15.85;;;;;;;2.40;63.47;97577.09;2076823;28;20532;-59
2022/03/24 02:43:56;;;;;;;32.95;16.25;;;;;;;2.34;63.23;97572.06;2076867;28;20201;-59
2022/03/24 02:45:02;;;;;;;31.45;17.25;;;;;;;2.36;63.33;97572.88;2076929;28;20223;-59
2022/03/24 02:46:03;;;;;;;38.67;17.27;;;;;;;2.30;63.61;97580.75;2076608;28;20283;-59
2022/03/24 02:47:06;;;;;;;34.90;16.30;;;;;;;2.26;63.58;97576.53;2076606;28;20327;-60
2022/03/24 02:48:09;;;;;;;27.00;15.98;;;;;;;2.33;63.54;97576.38;2076819;28;20644;-59
2022/03/24 02:49:10;;;;;;;36.72;18.65;;;;;;;2.41;63.35;97578.81;2076039;28;20210;-59
2022/03/24 02:50:12;;;;;;;29.35;16.55;;;;;;;2.44;63.32;97575.31;2075663;28;20201;-59
2022/03/24 02:51:14;;;;;;;33.35;18.30;;;;;;;2.55;62.88;97576.78;2074678;28;20225;-60
2022/03/24 02:52:15;;;;;;;29.35;15.52;;;;;;;2.54;62.83;97575.06;2074849;28;20664;-59
2022/03/24 02:53:17;;;;;;;27.20;16.00;;;;;;;2.40;63.30;97569.34;2076982;28;20503;-59
2022/03/24 02:54:19;;;;;;;33.20;17.58;;;;;;;2.40;63.34;97579.69;2073415;28;20634;-59
2022/03/24 02:55:20;;;;;;;34.05;16.90;;;;;;;2.44;63.11;97573.56;2077763;28;20336;-60
2022/03/24 02:56:23;;;;;;;31.42;17.10;;;;;;;2.44;63.27;97570.13;2079917;28;20727;-59
2022/03/24 02:57:24;;;;;;;30.05;17.23;;;;;;;2.51;62.83;97575.16;2075000;28;20197;-59
2022/03/24 02:58:25;;;;;;;31.27;17.60;;;;;;;2.53;62.74;97577.72;2076547;28;20208;-59
2022/03/24 02:59:27;;;;;;;29.67;16.70;;;;;;;2.55;62.72;97576.78;2076894;28;20198;-59
2022/03/24 03:00:29;;;;;;;38.08;17.70;;;;;;;2.46;62.71;97576.97;2075883;28;20296;-59
2022/03/24 03:01:31;;;;;;;30.27;16.60;;;;;;;2.50;62.59;97576.03;2074403;28;20679;-60
2022/03/24 03:02:32;;;;;;;30.40;16.85;;;;;;;2.38;62.64;97568.53;2074678;28;20301;-59
2022/03/24 03:03:34;;;;;;;29.13;16.15;;;;;;;2.35;63.10;97573.75;2075228;28;20197;-59
2022/03/24 03:04:36;;;;;;;30.40;15.88;;;;;;;2.36;63.09;97578.88;2077277;28;20205;-60
2022/03/24 03:05:37;;;;;;;32.30;15.93;;;;;;;2.39;63.08;97577.97;2076118;28;20224;-59
2022/03/24 03:06:39;;;;;;;38.38;18.50;;;;;;;2.47;63.01;97578.69;2074370;28;20554;-59
2022/03/24 03:07:40;;;;;;;26.92;15.70;;;;;;;2.30;63.09;97576.44;2075535;28;20201;-59
2022/03/24 03:08:42;;;;;;;29.40;17.45;;;;;;;2.27;63.29;97576.47;2078075;28;20198;-59
2022/03/24 03:09:44;;;;;;;38.10;16.42;;;;;;;2.27;63.52;97576.47;2077353;28;20592;-59
2022/03/24 03:10:45;;;;;;;36.47;17.35;;;;;;;2.23;63.67;97579.19;2071753;28;20640;-59
2022/03/24 03:11:47;;;;;;;38.00;17.75;;;;;;;2.29;63.53;97581.63;2073630;28;20538;-59
2022/03/24 03:12:49;;;;;;;33.55;16.83;;;;;;;2.21;63.95;97574.03;2073252;28;20201;-60
2022/03/24 03:13:52;;;;;;;31.45;15.65;;;;;;;2.25;63.94;97578.25;2074820;28;20210;-60
2022/03/24 03:14:56;;;;;;;30.75;15.30;;;;;;;2.40;63.35;97574.50;2075307;28;20252;-59
2022/03/24 03:15:57;;;;;;;33.75;15.35;;;;;;;2.40;63.08;97577.09;2076208;28;20721;-59
2022/03/24 03:17:00;;;;;;;27.77;14.75;;;;;;;2.38;63.38;97579.72;2078039;28;20198;-59
2022/03/24 03:18:04;;;;;;;28.83;15.98;;;;;;;2.34;63.54;97582.41;2078264;28;20193;-59
2022/03/24 03:19:08;;;;;;;29.17;16.08;;;;;;;2.44;63.36;97583.91;2075318;28;20197;-59
2022/03/24 03:20:12;;;;;;;29.05;15.85;;;;;;;2.40;63.36;97577.09;2078528;28;20205;-60
2022/03/24 03:21:16;;;;;;;31.40;16.48;;;;;;;2.46;63.01;97579.56;2075776;28;20225;-59
2022/03/24 03:22:18;;;;;;;27.45;15.05;;;;;;;2.39;63.42;97583.13;2072380;28;20649;-59
2022/03/24 03:23:20;;;;;;;30.63;15.75;;;;;;;2.27;63.59;97579.06;2077977;28;20202;-60
2022/03/24 03:24:22;;;;;;;31.27;16.85;;;;;;;2.18;64.35;97581.88;2077503;28;20201;-59
2022/03/24 03:25:24;;;;;;;32.50;16.38;;;;;;;2.25;64.16;97577.41;2076187;28;20201;-59
2022/03/24 03:26:25;;;;;;;31.25;16.67;;;;;;;2.25;63.94;97585.16;2075964;28;20201;-60
2022/03/24 03:27:32;;;;;;;27.17;14.70;;;;;;;2.19;64.36;97580.97;2075600;28;20202;-59
2022/03/24 03:28:34;;;;;;;35.47;15.48;;;;;;;2.07;64.43;97582.06;2075820;28;20201;-59
2022/03/24 03:29:35;;;;;;;31.33;17.45;;;;;;;2.07;64.54;97576.88;2078092;28;20593;-60
2022/03/24 03:30:37;;;;;;;32.08;15.85;;;;;;;2.02;64.62;97581.31;2078377;28;20222;-59
2022/03/24 03:31:38;;;;;;;34.90;14.98;;;;;;;2.03;64.66;97582.16;2077339;28;20254;-59
2022/03/24 03:32:41;;;;;;;34.45;16.58;;;;;;;2.04;64.22;97579.53;2075916;28;20227;-59
2022/03/24 03:33:42;;;;;;;39.40;16.17;;;;;;;1.95;64.41;97580.56;2073885;28;20212;-59
2022/03/24 03:34:43;;;;;;;23.52;14.45;;;;;;;1.95;64.74;97590.03;2077599;28;20200;-59
2022/03/24 03:35:45;;;;;;;26.45;16.05;;;;;;;1.87;64.86;97582.44;2075710;28;20221;-59
2022/03/24 03:36:47;;;;;;;32.47;15.90;;;;;;;1.85;65.11;97579.03;2074905;28;20197;-59
2022/03/24 03:37:48;;;;;;;26.75;15.48;;;;;;;1.89;64.78;97579.84;2075360;28;20197;-59
2022/03/24 03:38:50;;;;;;;31.95;15.35;;;;;;;2.01;64.54;97586.50;2076405;28;20198;-59
2022/03/24 03:39:52;;;;;;;28.98;15.65;;;;;;;2.06;63.87;97576.91;2076797;28;20194;-59
2022/03/24 03:40:54;;;;;;;30.27;16.33;;;;;;;1.93;64.53;97574.56;2075066;28;20217;-59
2022/03/24 03:41:56;;;;;;;27.20;15.68;;;;;;;1.89;64.41;97583.25;2074799;28;20205;-59
2022/03/24 03:42:58;;;;;;;27.23;15.68;;;;;;;1.97;64.37;97585.69;2078052;28;20621;-59
2022/03/24 03:43:59;;;;;;;28.38;15.45;;;;;;;1.97;64.22;97573.63;2074058;28;20198;-59
2022/03/24 03:45:01;;;;;;;28.40;16.35;;;;;;;2.05;63.84;97580.38;2075553;28;20208;-59
2022/03/24 03:46:03;;;;;;;28.45;16.08;;;;;;;2.00;63.77;97579.63;2074590;28;20233;-59
2022/03/24 03:47:06;;;;;;;31.63;16.42;;;;;;;1.91;63.78;97584.09;2077123;28;20196;-60
2022/03/24 03:48:09;;;;;;;29.38;16.25;;;;;;;1.81;64.36;97590.31;2075404;28;20212;-59
2022/03/24 03:49:11;;;;;;;29.80;15.73;;;;;;;1.76;64.83;97587.81;2074904;28;20193;-59
2022/03/24 03:50:13;;;;;;;28.50;16.17;;;;;;;1.82;64.73;97591.16;2075543;28;20613;-60
2022/03/24 03:51:15;;;;;;;23.35;14.45;;;;;;;1.74;64.68;97586.97;2076839;28;20221;-59
2022/03/24 03:52:16;;;;;;;28.13;16.45;;;;;;;1.72;65.15;97590.47;2075856;28;20662;-59
2022/03/24 03:53:18;;;;;;;27.55;15.70;;;;;;;1.77;65.33;97586.06;2073928;28;20202;-59
2022/03/24 03:54:21;;;;;;;30.20;14.77;;;;;;;1.71;65.02;97581.03;2075333;28;20216;-59
2022/03/24 03:55:23;;;;;;;26.92;15.70;;;;;;;1.72;65.29;97588.72;2077721;28;20198;-59
2022/03/24 03:56:25;;;;;;;28.08;15.23;;;;;;;1.77;65.11;97592.09;2075499;28;20205;-59
2022/03/24 03:57:26;;;;;;;28.90;15.30;;;;;;;1.66;65.19;97591.41;2075180;28;20200;-59
2022/03/24 03:58:28;;;;;;;29.33;16.17;;;;;;;1.61;65.35;97585.50;2075411;28;20216;-59
2022/03/24 03:59:30;;;;;;;28.55;17.13;;;;;;;1.56;65.42;97582.13;2075885;28;20526;-60
2022/03/24 04:01:55;;;;;;;30.63;17.25;;;;;;;1.54;65.58;97586.47;2074654;28;20691;-59
2022/03/24 04:02:58;;;;;;;32.63;16.50;;;;;;;1.51;65.83;97583.94;2077418;28;20609;-60
2022/03/24 04:04:00;;;;;;;28.00;15.57;;;;;;;1.60;64.95;97576.03;2075843;28;20201;-59
2022/03/24 04:05:02;;;;;;;30.00;16.52;;;;;;;1.55;65.55;97578.72;2075661;28;20202;-59
2022/03/24 04:06:09;;;;;;;28.08;15.60;;;;;;;1.48;65.78;97578.84;2074555;28;20581;-59
2022/03/24 04:07:10;;;;;;;31.20;16.60;;;;;;;1.48;65.43;97584.00;2075090;28;20649;-59
2022/03/24 04:08:13;;;;;;;33.53;15.85;;;;;;;1.49;64.91;97557.28;2075088;28;20201;-59
2022/03/24 04:09:15;;;;;;;27.65;16.27;;;;;;;1.64;65.07;97582.84;2073889;28;20687;-59
2022/03/24 04:10:16;;;;;;;33.25;16.10;;;;;;;1.53;65.28;97580.47;2073902;28;20194;-59
2022/03/24 04:11:19;;;;;;;34.10;16.05;;;;;;;1.49;65.12;97578.81;2076199;28;20200;-59
2022/03/24 04:12:20;;;;;;;27.92;16.30;;;;;;;1.54;65.16;97578.72;2074935;28;20673;-59
2022/03/24 04:13:22;;;;;;;26.88;15.50;;;;;;;1.54;65.08;97579.56;2076929;28;20200;-60
2022/03/24 04:14:25;;;;;;;27.98;16.90;;;;;;;1.53;65.42;97583.03;2075974;28;20205;-59
2022/03/24 04:15:26;;;;;;;31.15;16.85;;;;;;;1.55;65.27;97581.28;2075129;28;20234;-60
2022/03/24 04:16:28;;;;;;;35.72;16.83;;;;;;;1.54;65.48;97583.88;2073417;28;20194;-59
2022/03/24 04:17:29;;;;;;;30.13;15.77;;;;;;;1.50;65.58;97587.41;2075019;28;20201;-59
2022/03/24 04:18:30;;;;;;;28.55;15.45;;;;;;;1.50;65.55;97583.09;2075081;28;20197;-59
2022/03/24 04:19:32;;;;;;;30.13;16.80;;;;;;;1.44;66.10;97582.34;2075912;28;20208;-59
2022/03/24 04:20:34;;;;;;;36.67;15.68;;;;;;;1.47;65.94;97587.44;2078119;28;20205;-60
2022/03/24 04:21:36;;;;;;;32.15;14.70;;;;;;;1.52;65.69;97580.47;2075401;28;20543;-59
2022/03/24 04:22:37;;;;;;;29.15;15.63;;;;;;;1.54;65.74;97579.56;2075093;28;20201;-59
2022/03/24 04:23:41;;;;;;;28.88;16.02;;;;;;;1.58;65.44;97585.53;2074842;28;20198;-59
2022/03/24 04:24:43;;;;;;;26.13;15.73;;;;;;;1.51;65.61;97583.94;2074901;28;20231;-59
2022/03/24 04:25:46;;;;;;;30.15;15.88;;;;;;;1.43;66.17;97578.94;2077777;28;20229;-59
2022/03/24 04:26:47;;;;;;;26.30;16.00;;;;;;;1.40;66.08;97584.13;2073730;28;20193;-59
2022/03/24 04:27:50;;;;;;;35.90;15.45;;;;;;;1.41;66.27;97583.22;2077529;28;20197;-60
2022/03/24 04:28:51;;;;;;;28.25;14.48;;;;;;;1.33;66.55;97590.25;2076816;28;20201;-59
2022/03/24 04:29:53;;;;;;;26.48;15.32;;;;;;;1.32;66.85;97586.81;2077848;28;20221;-59
2022/03/24 04:30:54;;;;;;;22.77;14.88;;;;;;;1.32;66.34;97592.00;2077092;28;20225;-59
2022/03/24 04:31:56;;;;;;;31.77;16.33;;;;;;;1.21;66.59;97587.88;2076916;28;20194;-59
2022/03/24 04:32:58;;;;;;;27.67;15.30;;;;;;;1.26;66.67;97584.34;2077742;28;20201;-59
2022/03/24 04:33:59;;;;;;;31.58;14.70;;;;;;;1.31;66.79;97587.72;2074596;28;20212;-59
2022/03/24 04:35:01;;;;;;;28.38;16.02;;;;;;;1.29;66.42;97594.59;2079220;28;20218;-59
2022/03/24 04:36:05;;;;;;;34.67;16.88;;;;;;;1.20;66.76;97584.44;2078108;28;20252;-59
2022/03/24 04:37:07;;;;;;;28.48;15.68;;;;;;;1.30;66.31;97580.00;2077625;28;20533;-59
2022/03/24 04:38:09;;;;;;;33.13;16.20;;;;;;;1.36;65.94;97591.06;2076044;28;20204;-59
2022/03/24 04:39:10;;;;;;;29.55;16.98;;;;;;;1.37;66.00;97585.03;2077545;28;20851;-60
2022/03/24 04:40:15;;;;;;;28.33;16.50;;;;;;;1.32;66.40;97584.25;2076040;28;20198;-59
2022/03/24 04:41:17;;;;;;;31.00;15.30;;;;;;;1.41;66.41;97578.06;2062679;28;20227;-60
2022/03/24 04:42:18;;;;;;;27.63;16.33;;;;;;;1.28;66.30;97581.75;2065214;28;20194;-59
2022/03/24 04:43:20;;;;;;;34.10;15.50;;;;;;;1.27;66.67;97588.63;2065135;28;20229;-59
2022/03/24 04:44:24;;;;;;;26.70;15.02;;;;;;;1.18;66.82;97581.88;2065542;28;20198;-59
2022/03/24 04:45:29;;;;;;;27.30;13.85;;;;;;;1.16;66.91;97593.13;2065342;28;20654;-59
2022/03/24 04:46:31;;;;;;;26.55;15.35;;;;;;;1.09;67.17;97594.94;2078689;28;20208;-59
2022/03/24 04:47:34;;;;;;;28.80;14.40;;;;;;;1.08;67.27;97590.66;2077141;28;20224;-59
2022/03/24 04:48:36;;;;;;;25.75;14.45;;;;;;;1.15;66.95;97591.41;2073813;28;20216;-59
2022/03/24 04:49:38;;;;;;;25.20;14.70;;;;;;;1.16;66.71;97586.22;2076590;28;20198;-59
2022/03/24 04:50:39;;;;;;;29.63;15.68;;;;;;;1.18;67.28;97593.94;2079053;28;20232;-59
2022/03/24 04:51:43;;;;;;;29.85;15.07;;;;;;;1.14;66.99;97590.56;2078166;28;20255;-59
2022/03/24 04:52:45;;;;;;;27.95;13.73;;;;;;;1.10;67.19;97585.47;2074570;28;20198;-59